Time;durP1;ratioP1;P1;durP2;ratioP2;P2;SDS_P1;SDS_P2;PMS_P1;PMS_P2;Temp;Humidity;BMP_temperature;BMP_pressure;BME280_temperature;BME280_humidity;BME280_pressure;Samples;Min_cycle;Max_cycle;Signal;HPM_P1;HPM_P2
2021/11/27 00:00:50;;;;;;;0.47;0.45;;;3.40;99.90;;;;;;4431635;32;20510;-71
2021/11/27 00:03:16;;;;;;;1.30;1.08;;;3.40;99.90;;;;;;4436770;32;20069;-70
2021/11/27 00:05:42;;;;;;;0.57;0.57;;;3.50;99.90;;;;;;4432721;32;20535;-71
2021/11/27 00:08:10;;;;;;;0.50;0.50;;;3.40;99.90;;;;;;4432037;32;20423;-71
2021/11/27 00:10:37;;;;;;;0.60;0.60;;;3.50;99.90;;;;;;4426816;32;20073;-71
2021/11/27 00:13:04;;;;;;;0.40;0.40;;;3.40;99.90;;;;;;4425427;32;20495;-71
2021/11/27 00:15:31;;;;;;;0.50;0.50;;;3.50;99.90;;;;;;4428080;32;20188;-71
2021/11/27 00:17:58;;;;;;;0.60;0.60;;;3.40;99.90;;;;;;4433946;32;20094;-71
2021/11/27 00:20:27;;;;;;;0.65;0.65;;;3.50;99.90;;;;;;4432183;32;20117;-71
2021/11/27 00:22:53;;;;;;;0.50;0.50;;;3.50;99.90;;;;;;4432550;32;20535;-71
2021/11/27 00:25:19;;;;;;;0.43;0.43;;;3.50;99.90;;;;;;4429902;32;20066;-71
2021/11/27 00:27:44;;;;;;;0.50;0.50;;;3.50;99.90;;;;;;4438600;32;20126;-71
2021/11/27 00:30:18;;;;;;;0.55;0.55;;;3.50;99.90;;;;;;4430341;32;20065;-71
2021/11/27 00:32:44;;;;;;;4.57;1.37;;;3.50;99.90;;;;;;4434013;32;20073;-71
2021/11/27 00:35:10;;;;;;;0.80;0.80;;;3.30;99.90;;;;;;4438664;32;20068;-71
2021/11/27 00:37:36;;;;;;;0.50;0.50;;;3.20;99.90;;;;;;4429806;32;20431;-71
2021/11/27 00:40:04;;;;;;;0.65;0.65;;;3.20;99.90;;;;;;4431372;32;20069;-71
2021/11/27 00:42:29;;;;;;;0.70;0.70;;;3.20;99.90;;;;;;4435439;32;20080;-71
2021/11/27 00:44:55;;;;;;;0.35;0.35;;;3.10;99.90;;;;;;4429489;32;20077;-71
2021/11/27 00:47:21;;;;;;;0.30;0.30;;;3.20;99.90;;;;;;4429417;32;20082;-71
2021/11/27 00:49:50;;;;;;;1.75;1.48;;;3.30;99.90;;;;;;4427826;32;20061;-71
2021/11/27 00:52:16;;;;;;;0.40;0.40;;;3.30;99.90;;;;;;4431093;32;20073;-71
2021/11/27 00:54:41;;;;;;;0.45;0.45;;;3.30;99.90;;;;;;4429073;32;20463;-71
2021/11/27 00:57:07;;;;;;;0.40;0.40;;;3.40;99.90;;;;;;4428339;32;20503;-71
2021/11/27 00:59:32;;;;;;;3.35;1.05;;;3.30;99.90;;;;;;4428537;32;20498;-71
2021/11/27 01:01:58;;;;;;;0.50;0.50;;;3.30;99.90;;;;;;4434433;32;20081;-71
2021/11/27 01:04:23;;;;;;;3.85;1.52;;;3.30;99.90;;;;;;4431902;32;21319;-71
2021/11/27 01:06:49;;;;;;;4.20;0.75;;;3.30;99.90;;;;;;4435332;32;20085;-71
2021/11/27 01:09:16;;;;;;;0.60;0.60;;;3.30;99.90;;;;;;4431267;32;20082;-71
2021/11/27 01:11:46;;;;;;;1.08;0.82;;;3.20;99.90;;;;;;4429433;32;20093;-71
2021/11/27 01:14:15;;;;;;;0.85;0.85;;;3.20;99.90;;;;;;4429489;32;20061;-71
2021/11/27 01:16:44;;;;;;;0.73;0.73;;;3.20;99.90;;;;;;4430102;32;20554;-71
2021/11/27 01:19:10;;;;;;;0.40;0.40;;;3.20;99.90;;;;;;4441223;32;20064;-71
2021/11/27 01:21:41;;;;;;;0.50;0.50;;;3.30;99.90;;;;;;4430105;32;20464;-71
2021/11/27 01:24:10;;;;;;;2.50;1.42;;;3.20;99.90;;;;;;4433103;32;20085;-71
2021/11/27 01:26:37;;;;;;;0.50;0.50;;;3.20;99.90;;;;;;4435869;32;20420;-71
2021/11/27 01:29:04;;;;;;;0.68;0.68;;;3.20;99.90;;;;;;4432463;32;20514;-71
2021/11/27 01:31:30;;;;;;;0.95;0.95;;;3.00;99.90;;;;;;4431913;32;20633;-71
2021/11/27 01:33:55;;;;;;;0.50;0.50;;;3.10;99.90;;;;;;4437916;32;20061;-71
2021/11/27 01:36:21;;;;;;;0.50;0.50;;;3.00;99.90;;;;;;4431898;32;20428;-71
2021/11/27 01:38:47;;;;;;;0.45;0.45;;;2.90;99.90;;;;;;4431227;32;20073;-71
2021/11/27 01:41:14;;;;;;;0.40;0.40;;;2.90;99.90;;;;;;4435673;32;20061;-71
2021/11/27 01:43:40;;;;;;;0.77;0.77;;;2.90;99.90;;;;;;4438704;32;20098;-71
2021/11/27 01:46:06;;;;;;;1.98;0.93;;;2.80;99.90;;;;;;4437964;32;20065;-71
2021/11/27 01:48:32;;;;;;;0.52;0.52;;;2.80;99.90;;;;;;4434327;32;20124;-71
2021/11/27 01:51:01;;;;;;;0.40;0.40;;;2.80;99.90;;;;;;4430854;32;20056;-70
2021/11/27 01:53:29;;;;;;;0.40;0.40;;;2.80;99.90;;;;;;4432458;32;20057;-70
2021/11/27 01:56:00;;;;;;;0.68;0.68;;;2.70;99.90;;;;;;4435827;32;20073;-70
2021/11/27 01:58:26;;;;;;;0.50;0.50;;;2.70;99.90;;;;;;4426921;32;20077;-70
2021/11/27 02:00:56;;;;;;;1.60;0.77;;;2.70;99.90;;;;;;4432712;32;20468;-70
2021/11/27 02:03:22;;;;;;;0.43;0.43;;;2.70;99.90;;;;;;4435036;32;20065;-70
2021/11/27 02:05:48;;;;;;;5.07;1.58;;;2.60;99.90;;;;;;4432709;32;20081;-70
2021/11/27 02:08:16;;;;;;;0.40;0.40;;;2.70;99.90;;;;;;4436607;32;20077;-71
2021/11/27 02:10:42;;;;;;;1.15;0.85;;;2.60;99.90;;;;;;4434983;32;20077;-71
2021/11/27 02:13:08;;;;;;;0.50;0.50;;;2.60;99.90;;;;;;4431566;32;20423;-71
2021/11/27 02:15:34;;;;;;;0.65;0.65;;;2.50;99.90;;;;;;4429330;32;20077;-70
2021/11/27 02:18:01;;;;;;;0.50;0.50;;;2.50;99.90;;;;;;4436283;32;20073;-70
2021/11/27 02:20:27;;;;;;;0.65;0.65;;;2.50;99.90;;;;;;4444818;32;20085;-70
2021/11/27 02:22:53;;;;;;;0.73;0.73;;;2.50;99.90;;;;;;4433098;32;20061;-70
2021/11/27 02:25:21;;;;;;;0.85;0.77;;;2.50;99.90;;;;;;4433864;32;20082;-70
2021/11/27 02:27:49;;;;;;;4.37;2.58;;;2.40;99.90;;;;;;4432314;32;20065;-70
2021/11/27 02:30:19;;;;;;;2.95;1.20;;;2.40;99.90;;;;;;4437300;32;20088;-70
2021/11/27 02:32:45;;;;;;;0.67;0.67;;;2.40;99.90;;;;;;4432938;32;20176;-70
2021/11/27 02:35:11;;;;;;;0.60;0.60;;;2.40;99.90;;;;;;4433678;32;20057;-70
2021/11/27 02:37:37;;;;;;;0.32;0.32;;;2.40;99.90;;;;;;4434859;32;20089;-70
2021/11/27 02:40:06;;;;;;;0.68;0.68;;;2.50;99.90;;;;;;4435392;32;20065;-70
2021/11/27 02:42:32;;;;;;;0.37;0.37;;;2.50;99.90;;;;;;4432572;32;20073;-70
2021/11/27 02:44:58;;;;;;;0.60;0.60;;;2.40;99.90;;;;;;4428822;32;20064;-70
2021/11/27 02:47:23;;;;;;;0.60;0.60;;;2.50;99.90;;;;;;4431216;32;20090;-70
2021/11/27 02:49:49;;;;;;;0.98;0.93;;;2.30;99.90;;;;;;4436290;32;20121;-70
2021/11/27 02:52:15;;;;;;;2.22;0.85;;;2.30;99.90;;;;;;4432039;32;20061;-70
2021/11/27 02:54:40;;;;;;;0.47;0.47;;;2.20;99.90;;;;;;4437609;32;20072;-70
2021/11/27 02:57:07;;;;;;;0.60;0.60;;;2.20;99.90;;;;;;4431712;32;20077;-70
2021/11/27 02:59:33;;;;;;;0.40;0.40;;;2.20;99.90;;;;;;4433499;32;20068;-70
2021/11/27 03:02:02;;;;;;;0.60;0.60;;;2.30;99.90;;;;;;4439426;32;20061;-71
2021/11/27 03:04:33;;;;;;;0.40;0.40;;;2.30;99.90;;;;;;4435270;32;20316;-70
2021/11/27 03:06:59;;;;;;;;;;;2.30;99.90;;;;;;4430703;32;20523;-71
2021/11/27 03:09:25;;;;;;;0.52;0.52;;;2.30;99.90;;;;;;4432190;32;19956;-71
2021/11/27 03:11:53;;;;;;;0.43;0.43;;;2.30;99.90;;;;;;4433383;32;20062;-71
2021/11/27 03:14:21;;;;;;;0.77;0.77;;;2.30;99.90;;;;;;4431894;32;20058;-71
2021/11/27 03:16:47;;;;;;;0.55;0.55;;;2.20;99.90;;;;;;4433533;32;20057;-71
2021/11/27 03:19:13;;;;;;;0.40;0.40;;;2.20;99.90;;;;;;4434286;32;20109;-71
2021/11/27 03:21:41;;;;;;;2.92;1.30;;;2.30;99.90;;;;;;4437112;32;20054;-71
2021/11/27 03:24:06;;;;;;;0.70;0.70;;;2.20;99.90;;;;;;4430231;32;20823;-71
2021/11/27 03:26:32;;;;;;;1.12;1.02;;;2.20;99.90;;;;;;4433097;32;20053;-71
2021/11/27 03:28:57;;;;;;;0.40;0.40;;;2.20;99.90;;;;;;4431607;32;20081;-71
2021/11/27 03:31:23;;;;;;;0.50;0.50;;;2.10;99.90;;;;;;4429910;32;20077;-71
2021/11/27 03:33:49;;;;;;;0.98;0.95;;;2.20;99.90;;;;;;4431187;32;20105;-71
2021/11/27 03:36:16;;;;;;;0.60;0.60;;;2.10;99.90;;;;;;4428150;32;20064;-71
2021/11/27 03:38:42;;;;;;;0.88;0.82;;;2.10;99.90;;;;;;4440850;32;20060;-71
2021/11/27 03:41:08;;;;;;;0.82;0.62;;;2.10;99.90;;;;;;4432764;32;20081;-71
2021/11/27 03:43:33;;;;;;;0.68;0.68;;;2.00;99.90;;;;;;4430943;32;20108;-71
2021/11/27 03:46:00;;;;;;;0.80;0.80;;;1.90;99.90;;;;;;4428491;32;20479;-71
2021/11/27 03:48:30;;;;;;;3.53;1.65;;;1.80;99.90;;;;;;4429927;32;20121;-71
2021/11/27 03:50:57;;;;;;;0.37;0.37;;;1.70;99.90;;;;;;4432559;32;20062;-71
2021/11/27 03:53:26;;;;;;;0.40;0.40;;;1.80;99.90;;;;;;4432691;32;20513;-71
2021/11/27 03:55:53;;;;;;;0.40;0.40;;;1.80;99.90;;;;;;4430211;32;20534;-71
2021/11/27 03:58:19;;;;;;;0.40;0.40;;;1.80;99.90;;;;;;4430542;32;20061;-71
2021/11/27 04:00:45;;;;;;;0.40;0.40;;;1.80;99.90;;;;;;4434790;32;20547;-71
2021/11/27 04:03:14;;;;;;;1.25;1.10;;;1.80;99.90;;;;;;4435593;32;20494;-71
2021/11/27 04:05:44;;;;;;;0.30;0.30;;;1.90;99.90;;;;;;4438698;32;20545;-71
2021/11/27 04:08:09;;;;;;;45.00;2.62;;;1.90;99.90;;;;;;4431741;32;20072;-71
2021/11/27 04:10:36;;;;;;;0.85;0.85;;;1.90;99.90;;;;;;4429348;32;20138;-71
2021/11/27 04:13:02;;;;;;;0.30;0.30;;;1.90;99.90;;;;;;4432215;32;20077;-71
2021/11/27 04:15:28;;;;;;;0.40;0.40;;;1.90;99.90;;;;;;4433656;32;20234;-71
2021/11/27 04:17:54;;;;;;;0.40;0.40;;;1.90;99.90;;;;;;4432410;32;20077;-71
2021/11/27 04:20:19;;;;;;;0.55;0.55;;;1.90;99.90;;;;;;4430011;32;20061;-71
2021/11/27 04:22:45;;;;;;;1.85;1.12;;;1.90;99.90;;;;;;4433176;32;20073;-71
2021/11/27 04:25:12;;;;;;;0.75;0.75;;;1.90;99.90;;;;;;4425145;32;20113;-71
2021/11/27 04:27:38;;;;;;;0.37;0.37;;;1.90;99.90;;;;;;4422568;32;20135;-71
2021/11/27 04:30:06;;;;;;;9.43;1.85;;;1.90;99.90;;;;;;4434091;32;20168;-71
2021/11/27 04:32:31;;;;;;;0.50;0.50;;;1.90;99.90;;;;;;4435304;32;84441;-71
2021/11/27 04:34:57;;;;;;;0.60;0.60;;;1.90;99.90;;;;;;4444300;32;20080;-71
2021/11/27 04:37:22;;;;;;;0.47;0.47;;;1.90;99.90;;;;;;4429539;32;20074;-71
2021/11/27 04:39:50;;;;;;;0.45;0.45;;;1.90;99.90;;;;;;4429150;32;20106;-71
2021/11/27 04:42:15;;;;;;;0.60;0.60;;;1.90;99.90;;;;;;4431766;32;20131;-71
2021/11/27 04:44:41;;;;;;;1.25;1.15;;;1.80;99.90;;;;;;4430050;32;20089;-71
2021/11/27 04:47:07;;;;;;;0.85;0.85;;;1.90;99.90;;;;;;4428065;32;20123;-71
2021/11/27 04:49:32;;;;;;;0.60;0.60;;;1.90;99.90;;;;;;4429054;32;20076;-71
2021/11/27 04:51:58;;;;;;;0.57;0.57;;;1.90;99.90;;;;;;4428201;32;20149;-71
2021/11/27 04:54:23;;;;;;;0.40;0.40;;;2.00;99.90;;;;;;4427432;32;20120;-71
2021/11/27 04:56:49;;;;;;;0.40;0.40;;;2.00;99.90;;;;;;4433218;32;20707;-71
2021/11/27 04:59:14;;;;;;;0.40;0.40;;;2.00;99.90;;;;;;4430947;32;20538;-71
2021/11/27 05:01:40;;;;;;;0.47;0.47;;;2.00;99.90;;;;;;4434581;32;20120;-71
2021/11/27 05:04:06;;;;;;;0.37;0.37;;;2.00;99.90;;;;;;4434767;32;20183;-71
2021/11/27 05:06:32;;;;;;;1.33;0.82;;;1.90;99.90;;;;;;4422157;32;20436;-71
2021/11/27 05:08:57;;;;;;;0.70;0.70;;;2.00;99.90;;;;;;4429809;32;20077;-71
2021/11/27 05:11:24;;;;;;;0.50;0.50;;;2.00;99.90;;;;;;4429948;32;20464;-71
2021/11/27 05:13:49;;;;;;;0.43;0.43;;;2.00;99.90;;;;;;4431054;32;20073;-71
2021/11/27 05:16:15;;;;;;;0.40;0.40;;;2.00;99.90;;;;;;4428744;32;20581;-71
2021/11/27 05:18:41;;;;;;;0.50;0.50;;;2.10;99.90;;;;;;4428881;32;20160;-71
2021/11/27 05:21:07;;;;;;;0.40;0.40;;;2.10;99.90;;;;;;4427139;32;20098;-71
2021/11/27 05:23:32;;;;;;;0.88;0.88;;;2.20;99.90;;;;;;4429613;32;20132;-71
2021/11/27 05:25:58;;;;;;;0.37;0.37;;;2.10;99.90;;;;;;4429954;32;20064;-71
2021/11/27 05:28:23;;;;;;;0.40;0.40;;;2.10;99.90;;;;;;4428355;32;20080;-71
2021/11/27 05:30:49;;;;;;;3.80;1.73;;;2.20;99.90;;;;;;4429981;32;20129;-71
2021/11/27 05:33:16;;;;;;;0.40;0.40;;;2.10;99.90;;;;;;4428120;32;20082;-71
2021/11/27 05:35:42;;;;;;;3.70;1.30;;;2.00;99.90;;;;;;4432410;32;20064;-70
2021/11/27 05:38:09;;;;;;;0.52;0.52;;;1.80;99.90;;;;;;4427603;32;20485;-70
2021/11/27 05:40:36;;;;;;;0.73;0.73;;;1.80;99.90;;;;;;4438046;32;20061;-70
2021/11/27 05:43:02;;;;;;;2.97;1.95;;;1.90;99.90;;;;;;4435296;32;20069;-70
2021/11/27 05:45:29;;;;;;;0.30;0.30;;;2.00;99.90;;;;;;4431425;32;20085;-70
2021/11/27 05:47:58;;;;;;;24.45;1.20;;;2.00;99.90;;;;;;4420921;32;20105;-70
2021/11/27 05:50:25;;;;;;;0.73;0.73;;;1.90;99.90;;;;;;4426551;32;20066;-70
2021/11/27 05:52:51;;;;;;;0.50;0.50;;;1.80;99.90;;;;;;4428502;32;20070;-71
2021/11/27 05:55:18;;;;;;;0.70;0.70;;;1.80;99.90;;;;;;4428934;32;20409;-70
2021/11/27 05:57:43;;;;;;;0.47;0.47;;;1.80;99.90;;;;;;4428659;32;20140;-71
2021/11/27 06:00:13;;;;;;;0.40;0.40;;;1.80;99.90;;;;;;4431896;32;20444;-71
2021/11/27 06:02:40;;;;;;;0.55;0.55;;;1.90;99.90;;;;;;4431451;32;20527;-71
2021/11/27 06:05:06;;;;;;;0.40;0.40;;;1.90;99.90;;;;;;4426568;32;20089;-71
2021/11/27 06:07:32;;;;;;;0.40;0.40;;;2.00;99.90;;;;;;4428110;32;20120;-71
2021/11/27 06:09:57;;;;;;;0.57;0.57;;;2.00;99.90;;;;;;4431554;32;20073;-71
2021/11/27 06:12:23;;;;;;;0.30;0.30;;;2.00;99.90;;;;;;4432610;32;20444;-71
2021/11/27 06:14:48;;;;;;;0.52;0.52;;;2.00;99.90;;;;;;4432913;32;20089;-71
2021/11/27 06:17:15;;;;;;;5.03;1.10;;;2.00;99.90;;;;;;4432192;32;20089;-71
2021/11/27 06:19:40;;;;;;;3.45;1.52;;;2.00;99.90;;;;;;4443819;32;20404;-71
2021/11/27 06:22:06;;;;;;;2.40;1.10;;;2.00;99.90;;;;;;4437561;32;20093;-71
2021/11/27 06:24:31;;;;;;;1.90;1.37;;;1.90;99.90;;;;;;4432406;32;20065;-71
2021/11/27 06:26:57;;;;;;;0.57;0.57;;;2.10;99.90;;;;;;4431463;32;20084;-71
2021/11/27 06:29:23;;;;;;;0.88;0.88;;;2.00;99.90;;;;;;4434233;32;20061;-71
2021/11/27 06:31:48;;;;;;;0.70;0.70;;;2.00;99.90;;;;;;4434113;32;20082;-71
2021/11/27 06:34:16;;;;;;;0.57;0.57;;;2.00;99.90;;;;;;4436748;32;20196;-70
2021/11/27 06:36:41;;;;;;;7.32;1.55;;;1.90;99.90;;;;;;4429481;32;20065;-71
2021/11/27 06:39:07;;;;;;;1.17;0.88;;;1.90;99.90;;;;;;4430661;32;20108;-71
2021/11/27 06:41:32;;;;;;;0.68;0.68;;;1.90;99.90;;;;;;4433955;32;20419;-71
2021/11/27 06:43:58;;;;;;;0.70;0.70;;;1.90;99.90;;;;;;4430867;32;20100;-71
2021/11/27 06:46:23;;;;;;;0.73;0.73;;;1.90;99.90;;;;;;4433172;32;20089;-71
2021/11/27 06:48:49;;;;;;;0.50;0.50;;;1.90;99.90;;;;;;4434823;32;20405;-71
2021/11/27 06:51:15;;;;;;;0.60;0.60;;;1.90;99.90;;;;;;4434028;32;20108;-71
2021/11/27 06:53:41;;;;;;;0.60;0.60;;;1.90;99.90;;;;;;4430274;32;20102;-71
2021/11/27 06:56:07;;;;;;;0.50;0.50;;;1.90;99.90;;;;;;4430415;32;20073;-71
2021/11/27 06:58:33;;;;;;;0.50;0.50;;;2.00;99.90;;;;;;4431090;32;20108;-71
2021/11/27 07:00:58;;;;;;;0.85;0.85;;;2.00;99.90;;;;;;4435042;32;20081;-71
2021/11/27 07:03:24;;;;;;;0.62;0.62;;;1.90;99.90;;;;;;4436847;32;20068;-71
2021/11/27 07:05:49;;;;;;;0.52;0.52;;;2.00;99.90;;;;;;4431348;32;20124;-71
2021/11/27 07:08:15;;;;;;;0.68;0.68;;;2.10;99.90;;;;;;4431353;32;20499;-71
2021/11/27 07:10:42;;;;;;;1.15;1.05;;;2.20;99.90;;;;;;4434322;32;20146;-71
2021/11/27 07:13:08;;;;;;;0.80;0.80;;;2.20;99.90;;;;;;4430081;32;20148;-71
2021/11/27 07:15:34;;;;;;;1.08;1.05;;;2.20;99.90;;;;;;4435050;32;20131;-71
2021/11/27 07:18:00;;;;;;;0.43;0.43;;;2.30;99.90;;;;;;4429058;32;20073;-71
2021/11/27 07:20:26;;;;;;;8.07;1.37;;;2.20;99.90;;;;;;4432846;32;20139;-71
2021/11/27 07:22:52;;;;;;;0.57;0.57;;;2.20;99.90;;;;;;4431443;32;20069;-71
2021/11/27 07:25:17;;;;;;;2.20;1.50;;;2.20;99.90;;;;;;4427975;32;20136;-71
2021/11/27 07:27:43;;;;;;;0.80;0.80;;;2.20;99.90;;;;;;4431196;32;20074;-71
2021/11/27 07:30:09;;;;;;;0.55;0.52;;;2.30;99.90;;;;;;4432657;32;20684;-71
2021/11/27 07:32:35;;;;;;;1.23;1.08;;;2.30;99.90;;;;;;4433717;32;20076;-71
2021/11/27 07:35:00;;;;;;;15.02;1.40;;;2.40;99.90;;;;;;4431045;32;20125;-70
2021/11/27 07:37:27;;;;;;;6.10;2.15;;;2.40;99.90;;;;;;4431853;32;20252;-70
2021/11/27 07:39:52;;;;;;;0.55;0.55;;;2.40;99.90;;;;;;4438076;32;20089;-71
2021/11/27 07:42:18;;;;;;;1.33;0.93;;;2.50;99.90;;;;;;4434473;32;20077;-71
2021/11/27 07:44:43;;;;;;;1.08;1.08;;;2.50;99.90;;;;;;4430799;32;20127;-71
2021/11/27 07:47:09;;;;;;;0.82;0.82;;;2.60;99.90;;;;;;4430588;32;20436;-70
2021/11/27 07:49:34;;;;;;;1.85;1.58;;;2.70;99.90;;;;;;4429955;32;20104;-71
2021/11/27 07:52:00;;;;;;;0.95;0.95;;;2.70;99.90;;;;;;4431364;32;20073;-71
2021/11/27 07:54:25;;;;;;;0.93;0.90;;;2.70;99.90;;;;;;4438211;32;20072;-71
2021/11/27 07:56:52;;;;;;;1.92;0.85;;;2.70;99.90;;;;;;4434009;32;20069;-70
2021/11/27 07:59:18;;;;;;;0.68;0.68;;;2.70;99.90;;;;;;4441972;32;20077;-70
2021/11/27 08:01:43;;;;;;;1.95;1.35;;;2.90;99.90;;;;;;4434975;32;20072;-71
2021/11/27 08:04:09;;;;;;;0.47;0.47;;;3.00;99.90;;;;;;4445031;32;20085;-71
2021/11/27 08:06:34;;;;;;;0.60;0.60;;;3.10;99.90;;;;;;4431434;32;20134;-71
2021/11/27 08:09:00;;;;;;;0.57;0.57;;;2.90;99.90;;;;;;4433790;32;20085;-71
2021/11/27 08:11:25;;;;;;;8.15;1.20;;;3.00;99.90;;;;;;4435155;32;20069;-71
2021/11/27 08:13:52;;;;;;;6.18;2.40;;;3.10;99.90;;;;;;4436179;32;20089;-70
2021/11/27 08:16:19;;;;;;;1.40;1.10;;;3.30;99.90;;;;;;4431868;32;20168;-70
2021/11/27 08:18:46;;;;;;;0.88;0.88;;;3.30;99.90;;;;;;4425460;32;20400;-70
2021/11/27 08:21:12;;;;;;;0.88;0.88;;;3.30;99.90;;;;;;4432775;32;20574;-70
2021/11/27 08:23:37;;;;;;;3.20;0.95;;;3.20;99.90;;;;;;4434693;32;20120;-71
2021/11/27 08:26:03;;;;;;;0.52;0.52;;;3.20;99.90;;;;;;4433083;32;20061;-71
2021/11/27 08:28:29;;;;;;;3.42;2.15;;;3.30;99.90;;;;;;4436508;32;20125;-70
2021/11/27 08:30:54;;;;;;;11.25;2.67;;;3.40;99.90;;;;;;4437117;32;20119;-70
2021/11/27 08:33:20;;;;;;;1.10;1.08;;;3.40;99.90;;;;;;4432553;32;20085;-71
2021/11/27 08:35:47;;;;;;;1.20;1.10;;;3.30;99.90;;;;;;4431407;32;20397;-71
2021/11/27 08:38:14;;;;;;;1.30;1.20;;;3.30;99.90;;;;;;4431307;32;20515;-70
2021/11/27 08:40:40;;;;;;;2.92;0.70;;;3.40;99.90;;;;;;4437566;32;20065;-71
2021/11/27 08:43:06;;;;;;;0.77;0.77;;;3.40;99.90;;;;;;4433441;32;20107;-70
2021/11/27 08:45:32;;;;;;;2.30;1.50;;;3.30;99.90;;;;;;4431544;32;20172;-70
2021/11/27 08:47:59;;;;;;;1.62;0.80;;;3.20;99.90;;;;;;4426988;32;20083;-70
2021/11/27 08:50:25;;;;;;;0.70;0.70;;;3.20;99.90;;;;;;4430366;32;20369;-70
2021/11/27 08:52:51;;;;;;;1.25;1.15;;;3.20;99.90;;;;;;4430281;32;20101;-70
2021/11/27 08:55:18;;;;;;;1.05;0.98;;;3.20;99.90;;;;;;4433015;32;20263;-70
2021/11/27 08:57:44;;;;;;;0.73;0.73;;;3.30;99.90;;;;;;4435612;32;20089;-70
2021/11/27 09:00:11;;;;;;;1.40;1.27;;;3.30;99.90;;;;;;4434915;32;20392;-71
2021/11/27 09:02:38;;;;;;;0.95;0.93;;;3.30;99.90;;;;;;4436917;32;20109;-70
2021/11/27 09:05:05;;;;;;;5.82;1.05;;;3.40;99.90;;;;;;4431058;32;20066;-70
2021/11/27 09:07:30;;;;;;;1.20;1.10;;;3.50;99.90;;;;;;4431263;32;20130;-71
2021/11/27 09:09:56;;;;;;;0.75;0.75;;;3.30;99.90;;;;;;4433059;32;20601;-70
2021/11/27 09:12:22;;;;;;;0.90;0.82;;;3.30;99.90;;;;;;4433899;32;20432;-72
2021/11/27 09:14:50;;;;;;;0.70;0.70;;;3.40;99.90;;;;;;4433771;32;20086;-70
2021/11/27 09:17:17;;;;;;;0.98;0.90;;;3.40;99.90;;;;;;4431401;32;20306;-70
2021/11/27 09:19:44;;;;;;;0.70;0.70;;;3.40;99.90;;;;;;4432490;32;20086;-70
2021/11/27 09:22:11;;;;;;;1.45;1.35;;;3.40;99.90;;;;;;4431156;32;20076;-70
2021/11/27 09:24:37;;;;;;;0.52;0.52;;;3.40;99.90;;;;;;4432273;32;20066;-70
2021/11/27 09:27:03;;;;;;;5.28;3.80;;;3.30;99.90;;;;;;4430614;32;20081;-71
2021/11/27 09:29:29;;;;;;;13.30;4.47;;;3.40;99.90;;;;;;4429907;32;20310;-71
2021/11/27 09:31:55;;;;;;;10.25;3.58;;;3.40;99.90;;;;;;4441383;32;20085;-71
2021/11/27 09:34:20;;;;;;;4.25;3.40;;;3.40;99.90;;;;;;4429472;32;20093;-71
2021/11/27 09:36:47;;;;;;;1.42;1.35;;;3.50;99.90;;;;;;4430584;32;20065;-70
2021/11/27 09:39:15;;;;;;;0.60;0.60;;;3.50;99.90;;;;;;4433336;32;20064;-70
2021/11/27 09:41:43;;;;;;;1.42;1.33;;;3.50;99.90;;;;;;4432699;32;20072;-70
2021/11/27 09:44:11;;;;;;;8.10;2.58;;;3.40;99.90;;;;;;4431822;32;20062;-70
2021/11/27 09:46:39;;;;;;;5.37;2.55;;;3.50;99.90;;;;;;4431554;32;20070;-72
2021/11/27 09:49:08;;;;;;;0.52;0.52;;;3.50;99.90;;;;;;4435096;32;20069;-71
2021/11/27 09:51:36;;;;;;;0.80;0.80;;;3.50;99.90;;;;;;4442793;32;20081;-70
2021/11/27 09:54:04;;;;;;;0.93;0.93;;;3.40;99.90;;;;;;4432823;32;20120;-70
2021/11/27 09:56:30;;;;;;;1.45;1.10;;;3.50;99.90;;;;;;4440268;32;20699;-71
2021/11/27 09:58:56;;;;;;;0.70;0.70;;;3.60;99.90;;;;;;4435407;32;20085;-71
2021/11/27 10:01:28;;;;;;;0.68;0.68;;;3.80;99.90;;;;;;4433363;32;20068;-71
2021/11/27 10:04:00;;;;;;;1.42;1.33;;;3.80;99.90;;;;;;4433760;32;20062;-71
2021/11/27 10:06:28;;;;;;;2.17;1.48;;;4.00;99.90;;;;;;4435068;32;20070;-71
2021/11/27 10:08:53;;;;;;;0.50;0.50;;;3.90;99.90;;;;;;4433286;32;20234;-71
2021/11/27 10:11:19;;;;;;;0.80;0.80;;;3.80;99.90;;;;;;4436566;32;20494;-71
2021/11/27 10:13:44;;;;;;;6.28;1.83;;;3.90;99.90;;;;;;4430830;32;20132;-71
2021/11/27 10:16:10;;;;;;;0.75;0.75;;;4.00;99.90;;;;;;4432805;32;20069;-71
2021/11/27 10:18:35;;;;;;;1.42;1.33;;;4.10;99.90;;;;;;4434442;32;20092;-71
2021/11/27 10:21:22;;;;;;;2.30;1.05;;;4.10;99.90;;;;;;4433385;32;20400;-71
2021/11/27 10:23:50;;;;;;;1.65;0.60;;;4.00;99.90;;;;;;4431901;32;20412;-71
2021/11/27 10:26:37;;;;;;;1.45;1.33;;;3.90;99.90;;;;;;4433726;32;20633;-71
2021/11/27 10:29:26;;;;;;;2.85;1.27;;;3.90;99.90;;;;;;4433834;32;20085;-70
2021/11/27 10:32:04;;;;;;;0.68;0.68;;;3.90;99.90;;;;;;4429701;32;20401;-70
2021/11/27 10:34:30;;;;;;;0.77;0.77;;;3.90;99.90;;;;;;4431023;32;20530;-70
2021/11/27 10:36:57;;;;;;;6.35;1.60;;;3.80;99.90;;;;;;4430966;32;20093;-70
2021/11/27 10:39:22;;;;;;;5.30;1.58;;;3.90;99.90;;;;;;4434218;32;20128;-70
2021/11/27 10:41:58;;;;;;;2.87;1.20;;;4.00;99.90;;;;;;4435114;32;20064;-71
2021/11/27 10:44:28;;;;;;;3.78;1.67;;;4.00;99.90;;;;;;4429594;32;20097;-71
2021/11/27 10:47:09;;;;;;;3.22;1.92;;;4.00;99.90;;;;;;4431926;32;20467;-71
2021/11/27 10:49:35;;;;;;;;;;;4.00;99.90;;;;;;4430308;32;20101;-71
2021/11/27 10:52:09;;;;;;;1.23;1.02;;;4.10;99.90;;;;;;4432262;32;19944;-71
2021/11/27 10:54:56;;;;;;;0.88;0.88;;;4.20;99.90;;;;;;4433654;32;20440;-71
2021/11/27 10:57:33;;;;;;;0.70;0.70;;;4.10;99.90;;;;;;4434474;32;20060;-71
2021/11/27 11:00:04;;;;;;;1.87;1.37;;;4.20;99.90;;;;;;4438005;32;20121;-71
2021/11/27 11:02:34;;;;;;;0.68;0.68;;;4.10;99.90;;;;;;4439588;32;20158;-71
2021/11/27 11:05:11;;;;;;;3.87;1.12;;;4.20;99.90;;;;;;4431554;32;20066;-71
2021/11/27 11:07:38;;;;;;;2.45;1.95;;;4.10;99.90;;;;;;4431469;32;20401;-71
2021/11/27 11:10:12;;;;;;;1.17;1.08;;;4.20;99.90;;;;;;4430107;32;20058;-71
2021/11/27 11:12:46;;;;;;;3.92;2.47;;;4.30;99.90;;;;;;4426150;32;20358;-71
2021/11/27 11:15:17;;;;;;;0.60;0.60;;;4.30;99.90;;;;;;4427556;32;20081;-70
2021/11/27 11:17:45;;;;;;;0.60;0.60;;;4.30;99.90;;;;;;4426046;32;20069;-71
2021/11/27 11:20:13;;;;;;;0.77;0.77;;;4.30;99.90;;;;;;4431760;32;20069;-71
2021/11/27 11:22:39;;;;;;;3.85;0.77;;;4.20;99.90;;;;;;4431673;32;20132;-72
2021/11/27 11:25:07;;;;;;;0.80;0.80;;;4.10;99.90;;;;;;4435065;32;20065;-70
2021/11/27 11:27:35;;;;;;;1.40;1.30;;;4.20;99.90;;;;;;4439786;32;20085;-71
2021/11/27 11:30:04;;;;;;;0.80;0.80;;;4.20;99.90;;;;;;4428580;32;20129;-70
2021/11/27 11:32:31;;;;;;;2.65;1.45;;;4.10;99.90;;;;;;4431041;32;20077;-70
2021/11/27 11:35:01;;;;;;;0.95;0.93;;;4.20;99.90;;;;;;4427562;32;20080;-70
2021/11/27 11:37:27;;;;;;;1.08;1.08;;;4.30;99.90;;;;;;4430902;32;20120;-70
2021/11/27 11:39:54;;;;;;;1.42;1.33;;;4.40;99.90;;;;;;4430793;32;20423;-70
2021/11/27 11:42:25;;;;;;;0.70;0.70;;;4.50;99.90;;;;;;4430192;32;20093;-70
2021/11/27 11:44:51;;;;;;;1.12;1.02;;;4.40;99.90;;;;;;4419596;32;20600;-70
2021/11/27 11:47:16;;;;;;;1.25;1.15;;;4.40;99.90;;;;;;4434018;32;20069;-70
2021/11/27 11:49:43;;;;;;;1.30;1.20;;;4.40;99.90;;;;;;4428365;32;20469;-70
2021/11/27 11:52:34;;;;;;;1.17;1.05;;;4.40;99.90;;;;;;4430148;32;20073;-70
2021/11/27 11:55:06;;;;;;;3.03;1.15;;;4.40;99.90;;;;;;4429957;32;20073;-71
2021/11/27 11:57:52;;;;;;;1.48;1.37;;;4.40;99.90;;;;;;4436768;32;20081;-72
2021/11/27 12:00:30;;;;;;;0.70;0.70;;;4.50;99.90;;;;;;4436797;32;20077;-71
2021/11/27 12:03:07;;;;;;;0.68;0.68;;;4.50;99.90;;;;;;4428798;32;20164;-71
2021/11/27 12:05:34;;;;;;;2.10;1.65;;;4.50;99.90;;;;;;4427570;32;20090;-71
2021/11/27 12:08:01;;;;;;;1.48;1.27;;;4.60;99.90;;;;;;4429748;32;20060;-71
2021/11/27 12:10:30;;;;;;;2.97;1.12;;;4.60;99.90;;;;;;4429636;32;20077;-70
2021/11/27 12:13:13;;;;;;;0.55;0.55;;;4.70;99.90;;;;;;4427196;32;20122;-70
2021/11/27 12:15:41;;;;;;;5.53;1.23;;;4.50;99.90;;;;;;4425536;32;20082;-70
2021/11/27 12:18:14;;;;;;;10.65;1.23;;;4.50;99.90;;;;;;4427325;32;20164;-70
2021/11/27 12:20:43;;;;;;;0.95;0.95;;;4.50;99.90;;;;;;4428655;32;20093;-70
2021/11/27 12:23:32;;;;;;;2.83;0.93;;;4.50;99.90;;;;;;4428911;32;20083;-70
2021/11/27 12:26:14;;;;;;;0.70;0.70;;;4.50;99.90;;;;;;4427712;32;20086;-70
2021/11/27 12:29:02;;;;;;;0.82;0.82;;;4.60;99.90;;;;;;4432016;32;20060;-70
2021/11/27 12:31:46;;;;;;;0.73;0.73;;;4.60;99.90;;;;;;4428995;32;20073;-70
2021/11/27 12:34:32;;;;;;;1.75;0.90;;;4.70;99.90;;;;;;4429327;32;20132;-70
2021/11/27 12:36:58;;;;;;;2.10;0.93;;;4.50;99.90;;;;;;4429471;32;20089;-70
2021/11/27 12:39:26;;;;;;;16.95;1.12;;;4.40;99.90;;;;;;4431873;32;20068;-70
2021/11/27 12:42:09;;;;;;;3.47;1.83;;;4.40;99.90;;;;;;4428124;32;20072;-70
2021/11/27 12:44:43;;;;;;;8.43;4.00;;;4.50;99.90;;;;;;4427908;32;20065;-70
2021/11/27 12:47:20;;;;;;;2.28;1.83;;;4.50;99.90;;;;;;4428995;32;20704;-71
2021/11/27 12:49:48;;;;;;;2.83;1.75;;;4.50;99.90;;;;;;4427464;32;20074;-69
2021/11/27 12:52:16;;;;;;;4.95;1.85;;;4.50;99.90;;;;;;4428146;32;20396;-71
2021/11/27 12:54:44;;;;;;;1.40;1.30;;;4.40;99.90;;;;;;4429481;32;20471;-72
2021/11/27 12:57:14;;;;;;;7.15;1.87;;;4.40;99.90;;;;;;4430185;32;20089;-71
2021/11/27 12:59:44;;;;;;;0.80;0.80;;;4.40;99.90;;;;;;4428469;32;20085;-70